createdAt,value
2019-05-06T00:01:33.788Z,9.50
2019-05-06T00:04:20.486Z,9.50
2019-05-06T00:06:47.978Z,8.60
2019-05-06T00:09:34.974Z,9.40
2019-05-06T00:12:03.991Z,9.10
2019-05-06T00:14:33.841Z,9.30
2019-05-06T00:17:03.739Z,9.80
2019-05-06T00:19:30.817Z,9.80
2019-05-06T00:21:58.060Z,10.30
2019-05-06T00:24:29.361Z,9.20
2019-05-06T00:27:07.038Z,9.20
2019-05-06T00:29:35.048Z,9.30
2019-05-06T00:32:24.165Z,9.20
2019-05-06T00:34:54.671Z,8.90
2019-05-06T00:37:23.992Z,9.10
2019-05-06T00:39:57.411Z,9.10
2019-05-06T00:42:34.395Z,9.10
2019-05-06T00:45:01.510Z,9.20
2019-05-06T00:47:28.854Z,9.70
2019-05-06T00:49:56.668Z,9.80
2019-05-06T00:52:26.029Z,8.10
2019-05-06T00:55:13.776Z,9.20
2019-05-06T00:57:44.471Z,9.10
2019-05-06T01:00:16.809Z,9.30
2019-05-06T01:02:44.320Z,9.30
2019-05-06T01:05:13.405Z,9.20
2019-05-06T01:07:41.177Z,10.50
2019-05-06T01:10:08.457Z,9.60
2019-05-06T01:12:38.146Z,9.30
2019-05-06T01:15:09.750Z,8.70
2019-05-06T01:17:37.109Z,9.50
2019-05-06T01:20:04.618Z,8.90
2019-05-06T01:22:34.108Z,9.50
2019-05-06T01:25:03.859Z,9.50
2019-05-06T01:27:33.645Z,10.20
2019-05-06T01:30:00.404Z,8.80
2019-05-06T01:32:28.009Z,9.50
2019-05-06T01:35:14.967Z,9.50
2019-05-06T01:37:44.279Z,8.70
2019-05-06T01:40:23.888Z,9.50
2019-05-06T01:42:56.484Z,9.40
2019-05-06T01:45:23.948Z,9.50
2019-05-06T01:47:51.832Z,9.50
2019-05-06T01:50:18.993Z,9.60
2019-05-06T01:52:46.521Z,10.10
2019-05-06T01:55:14.274Z,9.70
2019-05-06T01:57:41.929Z,9.40
2019-05-06T02:00:09.213Z,9.80
2019-05-06T02:02:36.859Z,9.90
2019-05-06T02:05:04.835Z,9.90
2019-05-06T02:07:34.792Z,11.00
2019-05-06T02:10:03.985Z,9.90
2019-05-06T02:12:34.086Z,10.00
2019-05-06T02:15:00.250Z,10.00
2019-05-06T02:17:28.077Z,10.10
2019-05-06T02:19:55.557Z,10.10
2019-05-06T02:22:54.917Z,11.10
2019-05-06T02:25:37.345Z,9.40
2019-05-06T02:28:04.794Z,10.10
2019-05-06T02:30:56.262Z,10.10
2019-05-06T02:33:55.813Z,10.10
2019-05-06T02:36:45.564Z,10.10
2019-05-06T02:39:14.109Z,9.30
2019-05-06T02:41:42.994Z,9.80
2019-05-06T02:44:13.597Z,10.10
2019-05-06T02:46:44.156Z,10.10
2019-05-06T02:49:33.042Z,10.20
2019-05-06T02:52:02.798Z,10.70
2019-05-06T02:54:29.377Z,10.10
2019-05-06T02:56:56.954Z,10.20
2019-05-06T02:59:24.501Z,10.20
2019-05-06T03:01:53.874Z,10.30
2019-05-06T03:04:23.671Z,10.30
2019-05-06T03:06:53.220Z,10.20
2019-05-06T03:09:23.102Z,11.00
2019-05-06T03:11:49.473Z,11.00
2019-05-06T03:14:17.092Z,10.20
2019-05-06T03:16:44.480Z,10.30
2019-05-06T03:19:13.254Z,10.20
2019-05-06T03:22:03.466Z,10.20
2019-05-06T03:24:38.253Z,10.20
2019-05-06T03:27:05.986Z,10.30
2019-05-06T03:29:53.724Z,10.20
2019-05-06T03:32:25.218Z,9.60
2019-05-06T03:35:27.296Z,10.40
2019-05-06T03:37:59.541Z,9.90
2019-05-06T03:40:26.574Z,10.30
2019-05-06T03:42:54.360Z,10.30
2019-05-06T03:48:24.024Z,10.30
2019-05-06T03:50:55.672Z,11.20
2019-05-06T03:53:23.074Z,10.50
2019-05-06T03:55:50.073Z,10.90
2019-05-06T03:58:17.445Z,9.80
2019-05-06T04:00:44.969Z,10.30
2019-05-06T04:03:14.028Z,10.80
2019-05-06T04:05:43.584Z,10.50
2019-05-06T04:08:12.692Z,11.20
2019-05-06T04:10:43.240Z,10.30
2019-05-06T04:13:13.280Z,10.40
2019-05-06T04:16:16.730Z,10.50
2019-05-06T04:18:50.009Z,10.30
2019-05-06T04:21:33.819Z,10.30
2019-05-06T04:24:09.321Z,9.80
2019-05-06T04:26:53.336Z,10.30
2019-05-06T04:29:20.609Z,10.60
2019-05-06T04:31:48.292Z,11.70
2019-05-06T04:34:19.380Z,9.70
2019-05-06T04:36:44.791Z,10.50
2019-05-06T04:39:13.294Z,10.40
2019-05-06T04:41:43.334Z,10.40
2019-05-06T04:44:29.474Z,10.40
2019-05-06T04:46:57.026Z,9.60
2019-05-06T04:49:24.648Z,10.60
2019-05-06T04:51:54.076Z,10.40
2019-05-06T04:54:26.144Z,10.40
2019-05-06T04:56:53.561Z,10.30
2019-05-06T04:59:43.090Z,10.40
2019-05-06T05:02:09.703Z,9.60
2019-05-06T05:04:37.237Z,10.40
2019-05-06T05:07:24.762Z,10.40
2019-05-06T05:09:59.525Z,9.70
2019-05-06T05:12:33.597Z,10.20
2019-05-06T05:15:14.549Z,10.30
2019-05-06T05:17:46.662Z,10.30
2019-05-06T05:20:37.738Z,10.30
2019-05-06T05:23:02.846Z,9.50
2019-05-06T05:25:32.728Z,10.40
2019-05-06T05:28:02.018Z,10.40
2019-05-06T05:30:29.173Z,10.30
2019-05-06T05:33:16.040Z,10.00
2019-05-06T05:35:43.863Z,9.90
2019-05-06T05:38:13.042Z,10.30
2019-05-06T05:40:40.187Z,10.40
2019-05-06T05:43:39.280Z,11.50
2019-05-06T05:46:05.785Z,10.30
2019-05-06T05:48:55.272Z,10.40
2019-05-06T05:51:23.038Z,10.60
2019-05-06T05:53:52.327Z,9.80
2019-05-06T05:56:20.118Z,9.90
2019-05-06T05:58:47.337Z,10.40
2019-05-06T06:01:15.203Z,10.70
2019-05-06T06:03:42.400Z,10.50
2019-05-06T06:06:12.447Z,10.50
2019-05-06T06:08:39.945Z,9.40
2019-05-06T06:11:13.792Z,10.50
2019-05-06T06:13:43.331Z,11.60
2019-05-06T06:16:33.119Z,10.40
2019-05-06T06:19:32.914Z,10.80
2019-05-06T06:22:03.972Z,10.20
2019-05-06T06:24:33.140Z,10.20
2019-05-06T06:27:00.480Z,10.60
2019-05-06T06:29:27.979Z,10.20
2019-05-06T06:32:27.040Z,9.20
2019-05-06T06:35:14.284Z,9.60
2019-05-06T06:40:27.816Z,9.40
2019-05-06T06:43:02.133Z,10.20
2019-05-06T06:45:32.438Z,10.40
2019-05-06T06:48:00.012Z,10.60
2019-05-06T06:50:27.414Z,10.20
2019-05-06T06:52:55.224Z,10.30
2019-05-06T06:55:22.715Z,10.70
2019-05-06T06:58:11.867Z,10.60
2019-05-06T07:00:53.339Z,10.20
2019-05-06T07:03:32.739Z,10.20
2019-05-06T07:06:14.588Z,10.10
2019-05-06T07:08:52.183Z,10.20
2019-05-06T07:11:22.513Z,10.70
2019-05-06T07:13:55.599Z,10.20
2019-05-06T07:16:23.570Z,10.30
2019-05-06T07:19:12.795Z,10.40
2019-05-06T07:21:59.817Z,10.00
2019-05-06T07:24:27.725Z,9.90
2019-05-06T07:27:03.973Z,9.80
2019-05-06T07:29:32.787Z,10.30
2019-05-06T07:32:02.505Z,10.30
2019-05-06T07:34:32.097Z,9.80
2019-05-06T07:36:59.587Z,10.40
2019-05-06T07:39:29.597Z,10.60
2019-05-06T07:42:17.097Z,10.50
2019-05-06T07:45:08.995Z,10.80
2019-05-06T07:48:03.553Z,10.60
2019-05-06T07:50:33.094Z,10.90
2019-05-06T07:53:07.749Z,10.70
2019-05-06T07:55:36.331Z,10.80
2019-05-06T07:58:09.752Z,11.40
2019-05-06T08:00:37.388Z,10.70
2019-05-06T08:03:05.854Z,11.50
2019-05-06T08:05:33.774Z,10.90
2019-05-06T08:08:22.859Z,10.90
2019-05-06T08:10:52.596Z,10.50
2019-05-06T08:13:19.959Z,11.90
2019-05-06T08:15:47.161Z,11.00
2019-05-06T08:18:14.898Z,11.70
2019-05-06T08:21:04.327Z,11.20
2019-05-06T08:23:45.294Z,10.50
2019-05-06T08:26:17.267Z,10.30
2019-05-06T08:28:44.495Z,11.40
2019-05-06T08:31:12.822Z,12.30
2019-05-06T08:33:42.808Z,11.40
2019-05-06T08:36:22.445Z,11.20
2019-05-06T08:38:56.378Z,11.50
2019-05-06T08:41:23.807Z,12.00
2019-05-06T08:43:52.772Z,11.70
2019-05-06T08:46:39.962Z,12.00
2019-05-06T08:49:13.838Z,11.00
2019-05-06T08:52:03.511Z,12.00
2019-05-06T08:54:36.668Z,11.00
2019-05-06T08:57:04.096Z,10.70
2019-05-06T08:59:32.184Z,11.80
2019-05-06T09:02:03.238Z,12.50
2019-05-06T09:04:32.071Z,11.70
2019-05-06T09:07:04.555Z,12.40
2019-05-06T09:09:32.742Z,12.80
2019-05-06T09:12:02.388Z,12.00
2019-05-06T09:14:32.419Z,12.00
2019-05-06T09:16:59.369Z,11.80
2019-05-06T09:19:26.784Z,11.80
2019-05-06T09:21:54.663Z,12.20
2019-05-06T09:24:23.054Z,11.60
2019-05-06T09:27:24.975Z,12.00
2019-05-06T09:30:22.954Z,11.30
2019-05-06T09:32:52.154Z,11.90
2019-05-06T09:35:21.732Z,12.10
2019-05-06T09:38:08.771Z,12.10
2019-05-06T09:40:36.499Z,11.90
2019-05-06T09:43:04.771Z,12.00
2019-05-06T09:45:33.000Z,12.80
2019-05-06T09:48:07.845Z,12.10
2019-05-06T09:50:48.795Z,12.70
2019-05-06T09:53:24.718Z,12.30
2019-05-06T09:56:12.995Z,11.80
2019-05-06T09:58:43.027Z,12.30
2019-05-06T10:01:12.959Z,13.00
2019-05-06T10:03:39.587Z,12.40
2019-05-06T10:06:09.170Z,10.90
2019-05-06T10:08:36.566Z,12.40
2019-05-06T10:11:04.468Z,12.20
2019-05-06T10:13:32.770Z,12.20
2019-05-06T10:16:20.317Z,12.30
2019-05-06T10:18:47.711Z,11.80
2019-05-06T10:21:15.330Z,12.30
2019-05-06T10:23:42.703Z,12.30
2019-05-06T10:26:12.811Z,12.30
2019-05-06T10:28:59.222Z,12.30
2019-05-06T10:31:28.428Z,12.50
2019-05-06T10:34:09.604Z,12.60
2019-05-06T10:36:46.981Z,12.20
2019-05-06T10:39:14.727Z,12.40
2019-05-06T10:41:44.300Z,11.70
2019-05-06T10:44:29.731Z,12.60
2019-05-06T10:46:57.555Z,12.40
2019-05-06T10:50:02.648Z,13.50
2019-05-06T10:52:51.841Z,12.70
2019-05-06T10:55:27.909Z,12.90
2019-05-06T10:57:55.406Z,12.40
2019-05-06T11:00:23.263Z,12.90
2019-05-06T11:03:22.572Z,13.30
2019-05-06T11:06:09.325Z,13.40
2019-05-06T11:08:37.128Z,13.70
2019-05-06T11:11:14.897Z,13.80
2019-05-06T11:13:33.798Z,13.80
2019-05-06T11:16:03.298Z,13.90
2019-05-06T11:18:33.167Z,13.90
2019-05-06T11:21:00.153Z,13.90
2019-05-06T11:23:27.320Z,13.80
2019-05-06T11:25:54.849Z,13.50
2019-05-06T11:28:44.794Z,14.00
2019-05-06T11:31:34.497Z,14.10
2019-05-06T11:34:23.984Z,14.10
2019-05-06T11:39:52.998Z,14.00
2019-05-06T11:42:30.953Z,13.50
2019-05-06T11:44:49.649Z,13.90
2019-05-06T11:47:17.605Z,14.60
2019-05-06T11:50:05.256Z,14.90
2019-05-06T11:52:34.589Z,12.90
2019-05-06T11:55:02.284Z,13.50
2019-05-06T11:57:29.916Z,13.50
2019-05-06T11:59:57.395Z,13.50
2019-05-06T12:02:25.973Z,13.20
2019-05-06T12:04:53.240Z,13.60
2019-05-06T12:07:24.156Z,13.60
2019-05-06T12:09:49.710Z,13.60
2019-05-06T12:12:17.899Z,13.40
2019-05-06T12:14:45.573Z,13.30
2019-05-06T12:17:13.320Z,13.10
2019-05-06T12:19:43.034Z,13.30
2019-05-06T12:22:13.795Z,13.40
2019-05-06T12:24:43.039Z,13.40
2019-05-06T12:27:12.829Z,13.20
2019-05-06T12:29:42.866Z,13.20
2019-05-06T12:32:29.360Z,13.10
2019-05-06T12:34:57.367Z,13.50
2019-05-06T12:37:26.673Z,13.50
2019-05-06T12:39:56.370Z,13.60
2019-05-06T12:42:26.655Z,12.90
2019-05-06T12:45:08.926Z,13.60
2019-05-06T12:47:55.010Z,12.80
2019-05-06T12:50:23.001Z,13.70
2019-05-06T12:52:58.017Z,13.70
2019-05-06T12:55:26.642Z,13.80
2019-05-06T12:57:54.092Z,13.80
2019-05-06T13:00:23.530Z,13.50
2019-05-06T13:02:53.055Z,13.60
2019-05-06T13:05:22.814Z,13.60
2019-05-06T13:08:32.436Z,13.50
2019-05-06T13:10:53.065Z,13.10
2019-05-06T13:13:56.415Z,13.50
2019-05-06T13:19:00.453Z,13.10
2019-05-06T13:21:28.026Z,13.20
2019-05-06T13:24:02.405Z,13.20
2019-05-06T13:26:29.090Z,13.10
2019-05-06T13:29:04.301Z,13.10
2019-05-06T13:31:43.863Z,13.30
2019-05-06T13:34:25.126Z,13.00
2019-05-06T13:37:00.183Z,12.20
2019-05-06T13:39:27.235Z,12.70
2019-05-06T13:41:55.095Z,12.60
2019-05-06T13:44:22.905Z,12.60
2019-05-06T13:46:53.372Z,12.30
2019-05-06T13:49:49.198Z,12.50
2019-05-06T13:52:33.036Z,12.10
2019-05-06T13:55:38.524Z,13.10
2019-05-06T13:58:08.173Z,11.60
2019-05-06T14:00:36.321Z,12.20
2019-05-06T14:03:03.929Z,12.20
2019-05-06T14:06:03.052Z,12.20
2019-05-06T14:08:32.888Z,12.60
2019-05-06T14:11:00.190Z,12.20
2019-05-06T14:13:48.612Z,12.20
2019-05-06T14:16:16.111Z,11.40
2019-05-06T14:18:43.854Z,12.10
2019-05-06T14:21:12.429Z,11.60
2019-05-06T14:23:40.478Z,12.20
2019-05-06T14:26:35.592Z,12.70
2019-05-06T14:29:23.418Z,12.20
2019-05-06T14:31:52.520Z,12.10
2019-05-06T14:34:20.166Z,12.20
2019-05-06T14:36:48.027Z,12.20
2019-05-06T14:39:23.821Z,12.40
2019-05-06T14:41:53.761Z,12.30
2019-05-06T14:44:23.105Z,12.20
2019-05-06T14:47:04.894Z,12.20
2019-05-06T14:49:53.011Z,12.70
2019-05-06T14:52:22.610Z,12.10
2019-05-06T14:55:15.482Z,12.30
2019-05-06T14:57:43.337Z,12.10
2019-05-06T15:00:13.078Z,12.40
2019-05-06T15:02:42.723Z,12.50
2019-05-06T15:05:09.760Z,12.20
2019-05-06T15:07:36.997Z,11.30
2019-05-06T15:10:26.319Z,12.40
2019-05-06T15:12:53.533Z,12.20
2019-05-06T15:15:22.883Z,13.00
2019-05-06T15:17:50.397Z,12.60
2019-05-06T15:20:17.894Z,13.20
2019-05-06T15:22:45.150Z,12.50
2019-05-06T15:25:33.060Z,12.60
2019-05-06T15:28:02.518Z,12.30
2019-05-06T15:31:13.498Z,12.60
2019-05-06T15:33:44.086Z,12.00
2019-05-06T15:36:22.325Z,12.50
2019-05-06T15:38:52.601Z,12.60
2019-05-06T15:41:19.888Z,12.90
2019-05-06T15:43:47.356Z,12.30
2019-05-06T15:46:34.222Z,12.40
2019-05-06T15:49:03.045Z,11.90
2019-05-06T15:51:42.607Z,12.30
2019-05-06T15:54:06.970Z,12.00
2019-05-06T15:56:36.275Z,12.20
2019-05-06T15:59:05.275Z,12.30
2019-05-06T16:01:53.336Z,12.50
2019-05-06T16:04:22.742Z,12.20
2019-05-06T16:06:52.698Z,12.40
2019-05-06T16:09:32.915Z,13.30
2019-05-06T16:12:24.796Z,12.30
2019-05-06T16:14:56.307Z,11.80
2019-05-06T16:17:26.463Z,12.90
2019-05-06T16:19:53.870Z,12.40
2019-05-06T16:22:26.159Z,12.50
2019-05-06T16:24:59.346Z,11.80
2019-05-06T16:27:26.967Z,12.40
2019-05-06T16:29:54.761Z,11.40
2019-05-06T16:32:22.602Z,12.30
2019-05-06T16:34:52.488Z,12.20
2019-05-06T16:37:22.134Z,11.60
2019-05-06T16:39:49.252Z,12.80
2019-05-06T16:42:17.943Z,12.20
2019-05-06T16:44:45.447Z,12.40
2019-05-06T16:47:32.950Z,10.70
2019-05-06T16:50:01.175Z,12.40
2019-05-06T16:52:28.729Z,12.10
2019-05-06T16:54:56.733Z,12.10
2019-05-06T16:57:24.198Z,12.10
2019-05-06T17:00:02.983Z,12.00
2019-05-06T17:02:41.989Z,11.70
2019-05-06T17:05:29.019Z,11.50
2019-05-06T17:07:59.289Z,11.80
2019-05-06T17:10:26.853Z,11.90
2019-05-06T17:12:57.399Z,11.70
2019-05-06T17:15:27.241Z,12.30
2019-05-06T17:17:55.777Z,11.90
2019-05-06T17:20:23.185Z,11.40
2019-05-06T17:22:53.022Z,11.90
2019-05-06T17:25:22.313Z,11.80
2019-05-06T17:27:52.654Z,11.90
2019-05-06T17:30:39.536Z,12.50
2019-05-06T17:33:25.067Z,11.80
2019-05-06T17:35:52.876Z,11.80
2019-05-06T17:38:24.297Z,11.70
2019-05-06T17:41:12.328Z,11.70
2019-05-06T17:43:41.079Z,11.60
2019-05-06T17:46:08.965Z,11.70
2019-05-06T17:48:47.355Z,11.60
2019-05-06T17:51:46.753Z,11.70
2019-05-06T17:54:14.643Z,11.60
2019-05-06T17:56:42.084Z,12.60
2019-05-06T17:59:29.177Z,11.70
2019-05-06T18:01:59.136Z,11.40
2019-05-06T18:04:26.561Z,11.80
2019-05-06T18:06:54.407Z,10.70
2019-05-06T18:09:23.944Z,11.80
2019-05-06T18:11:58.997Z,11.80
2019-05-06T18:14:22.991Z,11.80
2019-05-06T18:16:53.610Z,12.50
2019-05-06T18:19:22.260Z,11.80
2019-05-06T18:21:49.653Z,12.70
2019-05-06T18:24:17.242Z,11.20
2019-05-06T18:26:45.104Z,11.40
2019-05-06T18:29:12.847Z,11.80
2019-05-06T18:31:43.398Z,12.50
2019-05-06T18:34:12.903Z,11.70
2019-05-06T18:36:42.768Z,11.30
2019-05-06T18:39:12.583Z,11.80
2019-05-06T18:41:41.924Z,11.80
2019-05-06T18:44:09.372Z,11.80
2019-05-06T18:46:37.157Z,12.20
2019-05-06T18:49:24.338Z,12.60
2019-05-06T18:51:54.114Z,11.50
2019-05-06T18:54:22.041Z,11.80
2019-05-06T18:56:52.127Z,11.80
2019-05-06T18:59:19.728Z,11.30
2019-05-06T19:01:47.578Z,11.60
2019-05-06T19:04:22.548Z,11.70
2019-05-06T19:06:50.001Z,11.70
2019-05-06T19:09:34.681Z,11.60
2019-05-06T19:12:03.610Z,11.50
2019-05-06T19:14:43.219Z,10.70
2019-05-06T19:17:13.013Z,12.20
2019-05-06T19:19:42.451Z,11.70
2019-05-06T19:22:09.463Z,11.50
2019-05-06T19:24:42.315Z,11.50
2019-05-06T19:27:09.840Z,11.20
2019-05-06T19:29:37.239Z,11.40
2019-05-06T19:32:05.122Z,11.30
2019-05-06T19:34:35.220Z,11.40
2019-05-06T19:37:02.592Z,10.90
2019-05-06T19:39:32.368Z,11.40
2019-05-06T19:41:59.527Z,11.50
2019-05-06T19:44:27.243Z,11.40
2019-05-06T19:46:54.562Z,12.30
2019-05-06T19:49:23.826Z,12.10
2019-05-06T19:51:52.269Z,11.40
2019-05-06T19:54:22.404Z,11.80
2019-05-06T19:56:49.934Z,11.70
2019-05-06T20:02:15.853Z,11.30
2019-05-06T20:04:47.304Z,11.10
2019-05-06T20:07:42.849Z,11.10
2019-05-06T20:13:14.524Z,11.40
2019-05-06T20:15:51.995Z,11.00
2019-05-06T20:18:19.796Z,10.70
2019-05-06T20:20:48.224Z,10.80
2019-05-06T20:23:17.092Z,11.70
2019-05-06T20:25:44.926Z,11.20
2019-05-06T20:28:13.292Z,11.20
2019-05-06T20:30:42.255Z,10.60
2019-05-06T20:33:12.290Z,10.60
2019-05-06T20:35:39.909Z,9.80
2019-05-06T20:38:07.500Z,10.90
2019-05-06T20:40:37.022Z,10.50
2019-05-06T20:43:16.707Z,11.20
2019-05-06T20:45:35.545Z,9.40
2019-05-06T20:48:04.033Z,10.40
2019-05-06T20:50:32.151Z,10.10
2019-05-06T20:53:00.231Z,11.20
2019-05-06T20:55:27.695Z,11.00
2019-05-06T20:57:55.609Z,10.40
2019-05-06T21:00:23.351Z,10.40
2019-05-06T21:02:53.313Z,10.20
2019-05-06T21:05:22.751Z,10.40
2019-05-06T21:07:52.415Z,10.00
2019-05-06T21:10:19.463Z,10.30
2019-05-06T21:12:46.941Z,10.20
2019-05-06T21:15:14.621Z,10.00
2019-05-06T21:17:42.108Z,10.10
2019-05-06T21:20:09.808Z,10.10
2019-05-06T21:22:37.207Z,10.00
2019-05-06T21:25:06.000Z,9.70
2019-05-06T21:27:33.460Z,9.90
2019-05-06T21:30:20.358Z,9.90
2019-05-06T21:32:48.102Z,9.80
2019-05-06T21:35:15.113Z,9.00
2019-05-06T21:37:43.034Z,10.70
2019-05-06T21:40:12.300Z,10.00
2019-05-06T21:42:40.132Z,9.90
2019-05-06T21:45:07.465Z,9.30
2019-05-06T21:47:35.200Z,9.90
2019-05-06T21:50:02.536Z,9.80
2019-05-06T21:52:37.162Z,9.90
2019-05-06T21:54:59.687Z,9.80
2019-05-06T21:57:27.507Z,9.70
2019-05-06T21:59:56.928Z,9.70
2019-05-06T22:02:24.247Z,9.70
2019-05-06T22:04:52.351Z,9.60
2019-05-06T22:07:22.875Z,9.60
2019-05-06T22:10:10.091Z,10.30
2019-05-06T22:12:37.494Z,9.10
2019-05-06T22:15:06.017Z,9.60
2019-05-06T22:17:33.389Z,9.60
2019-05-06T22:20:03.110Z,9.00
2019-05-06T22:22:32.817Z,9.60
2019-05-06T22:25:02.661Z,9.70
2019-05-06T22:27:29.505Z,10.10
2019-05-06T22:30:16.309Z,9.00
2019-05-06T22:32:46.624Z,8.90
2019-05-06T22:35:15.633Z,9.70
2019-05-06T22:37:45.071Z,9.70
2019-05-06T22:40:12.638Z,9.80
2019-05-06T22:42:40.026Z,9.80
2019-05-06T22:45:07.887Z,10.00
2019-05-06T22:47:35.317Z,9.80
2019-05-06T22:50:03.277Z,10.70
2019-05-06T22:52:32.549Z,8.80
2019-05-06T22:55:03.745Z,9.70
2019-05-06T22:57:29.476Z,9.70
2019-05-06T22:59:56.933Z,10.20
2019-05-06T23:02:39.855Z,10.30
2019-05-06T23:05:07.876Z,9.30
2019-05-06T23:07:35.173Z,9.60
2019-05-06T23:10:03.434Z,9.60
2019-05-06T23:12:32.517Z,10.40
2019-05-06T23:15:02.489Z,9.70
2019-05-06T23:17:29.616Z,10.80
2019-05-06T23:19:57.444Z,9.20
2019-05-06T23:22:25.146Z,9.10
2019-05-06T23:24:54.171Z,10.70
2019-05-06T23:27:23.266Z,9.30
2019-05-06T23:29:52.612Z,9.60
2019-05-06T23:32:39.667Z,9.60
2019-05-06T23:35:06.993Z,8.80
2019-05-06T23:38:12.157Z,9.60
2019-05-06T23:41:16.417Z,8.70
2019-05-06T23:44:23.055Z,9.60
2019-05-06T23:47:32.621Z,9.40
2019-05-06T23:50:36.746Z,9.50
2019-05-06T23:53:41.328Z,8.90
2019-05-06T23:56:44.299Z,8.50
2019-05-06T23:59:12.550Z,8.90
